Sheridan, WY

11:36 AM MST on February 28, 2015 (GMT -0700)
KWYSHERI2 | Change Station
CLOSE
Current Station
Personal Weather Station
Location: Sheridan, WY
Elevation: 3828 ft
Nearby Weather Stations

Elev 3828 ft 44.81 °N, 106.98 °W | Updated 4 minutes ago

Light Snow
Light Snow
17.5 °F
Feels Like 18 °F
N
3.0
Wind Variable Wind from NW
Gusts 3.0 mph

Today
High -- | Low -- °F
--% Chance of Precip.
Yesterday
High -- | Low -- °F
Precip. -- in
6:47 AM 5:53 PM
Waxing Gibbous, 79% visible
Pressure 30.32 in
Visibility 4.0 miles
Clouds Overcast 1900 ft
Windchill 18 °F
Dew Point 7 °F
Humidity 62%
Rainfall 0.00 in
Snow Depth Not available.
UV 1 out of 12
Pollen .30 out of 12
Air Quality Not available.
Flu Activity Not available.
METAR KSHR 281753Z AUTO 31005KT 4SM -SN OVC019 M08/M13 A3011 RMK AO2 SNB42 SLP266 P0000 60000 T10831133 11083 21094 51006

More Conditions Fewer Conditions

Pressure 30.32 in
Visibility 4.0 miles
Clouds Overcast 1900 ft
Windchill 18 °F
Dew Point 7 °F
Humidity 62%
Rainfall 0.00 in
Snow Depth Not available.
UV 1 out of 12
Pollen .30 out of 12
Air Quality Not available.
Flu Activity Not available.
METAR KSHR 281753Z AUTO 31005KT 4SM -SN OVC019 M08/M13 A3011 RMK AO2 SNB42 SLP266 P0000 60000 T10831133 11083 21094 51006

More Conditions Fewer Conditions

10-Day Weather Forecast

Almanac

Astronomy

Feb. 28, 2015 Rise Set
Actual Time
Civil Twilight
Nautical Twilight
Astronomical Twilight
Moon
Length of Visible Light
Length of Day
Tomorrow will be .
, % of the Moon is Illuminated

Today's Extremes

State Highs State Lows

Community

WunderPhotos

Upload Photos

1,801,106 photos uploaded!

WunderBlogs® & News

Nearby

Air Quality

  Air Quality AQ Index Pollutant
Not available.

Snow Depth

Station Depth Elevation

Earthquake Activity

City Distance Mag. Time & Date
Minimum magnitude displayed is 2.5.

Coastal Water Temperatures

Place Temperature

Nearby Weather Stations